Terminal Aerodrome Forecast
Issued by NWS

Home | Current Version | Previous Version | Text Only | Print | Product List | Glossary On
Versions: 1 2 3 4 5 6 7 8 9 10 11 12 13 14 15 16 17 18 19 20
000
FTUS44 KJAN 191700
TAFGTR
TAF
KGTR 191730Z 1918/2018 10006KT P6SM SCT050
     FM191930 10006KT P6SM VCSH BKN060
     FM200000 10004KT P6SM FEW060
     FM201100 12003KT 5SM BR FEW030
     FM201330 12007KT P6SM FEW030 SCT250=

USA.gov is the U.S. government's official web portal to all federal, state and local government web resources and services.